createdAt,value
2022-11-21T00:00:35.549Z,99037.91
2022-11-21T00:05:43.821Z,99035.28
2022-11-21T00:10:46.110Z,99023.50
2022-11-21T00:15:48.212Z,99027.59
2022-11-21T00:20:49.517Z,99022.75
2022-11-21T00:25:50.813Z,99014.84
2022-11-21T00:30:52.226Z,99015.31
2022-11-21T00:35:53.558Z,99010.50
2022-11-21T00:40:54.896Z,99020.13
2022-11-21T00:45:56.230Z,99019.41
2022-11-21T00:50:57.655Z,99018.06
2022-11-21T00:55:59.031Z,99021.03
2022-11-21T01:01:10.187Z,99019.56
2022-11-21T01:06:14.276Z,99014.66
2022-11-21T01:11:17.978Z,99010.16
2022-11-21T01:16:21.645Z,99003.88
2022-11-21T01:21:25.376Z,99013.25
2022-11-21T01:26:29.612Z,99016.31
2022-11-21T01:31:31.691Z,99014.41
2022-11-21T01:36:34.219Z,99012.94
2022-11-21T01:41:38.766Z,99013.94
2022-11-21T01:46:40.120Z,98991.69
2022-11-21T01:51:51.688Z,99002.22
2022-11-21T01:57:00.952Z,98997.91
2022-11-21T02:02:05.223Z,98985.47
2022-11-21T02:07:07.836Z,98999.59
2022-11-21T02:12:16.396Z,98993.56
2022-11-21T02:17:18.513Z,99000.41
2022-11-21T02:22:26.007Z,99003.44
2022-11-21T02:27:28.171Z,99003.72
2022-11-21T02:32:35.952Z,99011.63
2022-11-21T02:37:37.562Z,99003.50
2022-11-21T02:43:00.298Z,99016.78
2022-11-21T02:48:04.225Z,99017.50
2022-11-21T02:53:08.404Z,99025.56
2022-11-21T02:58:10.438Z,99028.66
2022-11-21T03:03:12.066Z,99039.00
2022-11-21T03:08:13.390Z,99031.59
2022-11-21T03:13:14.688Z,99032.72
2022-11-21T03:18:15.964Z,99044.59
2022-11-21T03:23:17.366Z,99037.19
2022-11-21T03:28:18.713Z,99041.78
2022-11-21T03:33:20.032Z,99039.66
2022-11-21T03:38:21.333Z,99038.78
2022-11-21T03:43:22.737Z,99037.56
2022-11-21T03:48:24.063Z,99045.75
2022-11-21T03:53:25.414Z,99053.03
2022-11-21T03:58:26.742Z,99040.91
2022-11-21T04:03:28.052Z,99044.84
2022-11-21T04:08:29.337Z,99047.25
2022-11-21T04:13:30.657Z,99044.03
2022-11-21T04:18:34.216Z,99053.81
2022-11-21T04:23:35.844Z,99057.16
2022-11-21T04:28:37.186Z,99055.69
2022-11-21T04:33:39.530Z,99055.03
2022-11-21T04:38:40.896Z,99058.41
2022-11-21T04:43:42.265Z,99052.13
2022-11-21T04:48:43.574Z,99054.06
2022-11-21T04:53:44.944Z,99053.59
2022-11-21T04:58:46.249Z,99057.13
2022-11-21T05:03:47.556Z,99060.38
2022-11-21T05:08:52.681Z,99046.81
2022-11-21T05:13:55.433Z,99055.91
2022-11-21T05:18:56.712Z,99064.66
2022-11-21T05:23:58.102Z,99055.56
2022-11-21T05:28:59.521Z,99062.59
2022-11-21T05:34:00.899Z,99054.53
2022-11-21T05:39:02.222Z,99055.81
2022-11-21T05:44:03.700Z,99056.03
2022-11-21T05:49:05.221Z,99050.28
2022-11-21T05:54:06.738Z,99060.84
2022-11-21T05:59:08.656Z,99065.97
2022-11-21T06:04:10.590Z,99065.19
2022-11-21T06:09:11.876Z,99066.59
2022-11-21T06:14:13.162Z,99056.16
2022-11-21T06:19:14.565Z,99057.25
2022-11-21T06:24:20.766Z,99047.50
2022-11-21T06:29:23.376Z,99059.03
2022-11-21T06:34:27.034Z,99071.13
2022-11-21T06:39:28.622Z,99070.41
2022-11-21T06:44:30.284Z,99062.84
2022-11-21T06:49:31.729Z,99059.69
2022-11-21T06:54:33.645Z,99075.13
2022-11-21T06:59:35.289Z,99084.00
2022-11-21T07:04:36.649Z,99092.84
2022-11-21T07:09:37.963Z,99100.53
2022-11-21T07:14:39.302Z,99087.19
2022-11-21T07:19:41.207Z,99092.81
2022-11-21T07:24:42.791Z,99092.81
2022-11-21T07:29:44.192Z,99100.63
2022-11-21T07:34:45.541Z,99106.03
2022-11-21T07:39:46.877Z,99114.81
2022-11-21T07:44:48.153Z,99112.19
2022-11-21T07:49:49.493Z,99117.69
2022-11-21T07:54:51.016Z,99117.69
2022-11-21T07:59:52.313Z,99111.88
2022-11-21T08:04:54.033Z,99109.66
2022-11-21T08:09:55.490Z,99121.16
2022-11-21T08:14:56.828Z,99117.97
2022-11-21T08:20:00.245Z,99115.31
2022-11-21T08:25:01.583Z,99115.31
2022-11-21T08:30:05.095Z,99106.28
2022-11-21T08:35:06.956Z,99103.69
2022-11-21T08:40:08.923Z,99103.44
2022-11-21T08:45:10.442Z,99104.25
2022-11-21T08:50:11.787Z,99099.69
2022-11-21T08:55:13.128Z,99098.50
2022-11-21T09:00:15.059Z,99091.97
2022-11-21T09:05:16.509Z,99089.88
2022-11-21T09:10:17.921Z,99089.28
2022-11-21T09:15:37.832Z,99093.34
2022-11-21T09:20:42.246Z,99093.44
2022-11-21T09:25:44.406Z,99102.06
2022-11-21T09:30:46.142Z,99085.97
2022-11-21T09:35:48.035Z,99091.09
2022-11-21T09:40:49.541Z,99090.44
2022-11-21T09:45:55.080Z,99084.91
2022-11-21T09:51:05.932Z,99088.44
2022-11-21T09:56:15.584Z,99087.34
2022-11-21T10:01:17.473Z,99079.16
2022-11-21T10:06:25.954Z,99066.19
2022-11-21T10:12:14.139Z,99059.16
2022-11-21T10:17:33.762Z,99055.81
2022-11-21T10:22:45.010Z,99046.97
2022-11-21T10:27:55.514Z,99036.31
2022-11-21T10:33:01.564Z,99027.75
2022-11-21T10:38:14.591Z,99017.50
2022-11-21T10:43:59.333Z,99010.56
2022-11-21T10:49:03.013Z,98996.63
2022-11-21T10:54:29.354Z,98994.13
2022-11-21T10:59:31.502Z,99000.44
2022-11-21T11:04:45.681Z,98994.41
2022-11-21T11:09:48.979Z,98986.03
2022-11-21T11:14:52.978Z,98968.88
2022-11-21T11:20:06.352Z,98973.63
2022-11-21T11:25:09.643Z,98953.56
2022-11-21T11:30:15.665Z,98955.91
2022-11-21T11:35:16.954Z,98943.66
2022-11-21T11:40:21.235Z,98941.84
2022-11-21T11:46:09.620Z,98941.91
2022-11-21T11:51:41.754Z,98927.41
2022-11-21T11:56:43.393Z,98923.41
2022-11-21T12:02:16.584Z,98923.19
2022-11-21T12:13:16.186Z,98909.56
2022-11-21T12:18:20.425Z,98897.56
2022-11-21T12:23:24.054Z,98880.66
2022-11-21T12:28:43.468Z,98875.34
2022-11-21T12:34:04.228Z,98862.38
2022-11-21T12:39:32.404Z,98843.19
2022-11-21T12:44:39.972Z,98836.78
2022-11-21T12:50:06.177Z,98832.06
2022-11-21T12:55:35.147Z,98842.78
2022-11-21T13:01:03.340Z,98828.13
2022-11-21T13:06:06.838Z,98812.72
2022-11-21T13:12:00.995Z,98794.50
2022-11-21T13:17:24.366Z,98795.56
2022-11-21T13:22:37.707Z,98789.56
2022-11-21T13:27:41.033Z,98780.94
2022-11-21T13:32:45.107Z,98774.97
2022-11-21T13:37:49.179Z,98775.56
2022-11-21T13:43:32.155Z,98765.84
2022-11-21T13:48:30.695Z,98766.28
2022-11-21T13:53:41.606Z,98755.03
2022-11-21T13:59:00.445Z,98743.06
2022-11-21T14:04:07.732Z,98744.63
2022-11-21T14:09:48.770Z,98729.22
2022-11-21T14:15:13.129Z,98724.03
2022-11-21T14:20:19.957Z,98714.72
2022-11-21T14:25:33.740Z,98699.91
2022-11-21T14:30:37.907Z,98682.41
2022-11-21T14:35:39.753Z,98668.13
2022-11-21T14:40:41.029Z,98677.59
2022-11-21T14:45:49.073Z,98680.72
2022-11-21T14:50:50.570Z,98670.66
2022-11-21T14:55:54.673Z,98672.06
2022-11-21T15:01:05.183Z,98675.78
2022-11-21T15:06:10.710Z,98660.41
2022-11-21T15:11:13.870Z,98660.88
2022-11-21T15:16:15.585Z,98648.63
2022-11-21T15:21:17.041Z,98626.59
2022-11-21T15:26:32.165Z,98609.53
2022-11-21T15:31:33.513Z,98592.22
2022-11-21T15:36:34.901Z,98589.50
2022-11-21T15:41:36.936Z,98581.78
2022-11-21T15:46:42.064Z,98573.53
2022-11-21T15:57:09.109Z,98532.09
2022-11-21T16:02:13.409Z,98529.91
2022-11-21T16:07:14.764Z,98518.25
2022-11-21T16:12:16.056Z,98503.50
2022-11-21T16:17:17.403Z,98483.06
2022-11-21T16:22:18.809Z,98481.72
2022-11-21T16:27:20.153Z,98477.69
2022-11-21T16:32:21.543Z,98469.34
2022-11-21T16:37:22.870Z,98462.72
2022-11-21T16:42:24.163Z,98443.75
2022-11-21T16:47:25.493Z,98441.06
2022-11-21T16:52:26.855Z,98419.09
2022-11-21T16:57:28.421Z,98410.75
2022-11-21T17:02:30.060Z,98392.66
2022-11-21T17:07:32.851Z,98397.91
2022-11-21T17:12:41.194Z,98402.69
2022-11-21T17:17:42.982Z,98416.88
2022-11-21T17:22:44.329Z,98414.53
2022-11-21T17:27:47.057Z,98390.00
2022-11-21T17:32:48.537Z,98395.56
2022-11-21T17:37:49.874Z,98394.84
2022-11-21T17:42:51.169Z,98380.94
2022-11-21T17:47:52.559Z,98375.75
2022-11-21T17:52:54.063Z,98374.38
2022-11-21T17:57:55.343Z,98367.94
2022-11-21T18:02:56.807Z,98364.91
2022-11-21T18:07:58.440Z,98364.28
2022-11-21T18:13:00.009Z,98355.97
2022-11-21T18:18:01.344Z,98337.91
2022-11-21T18:23:03.120Z,98351.28
2022-11-21T18:28:05.619Z,98358.84
2022-11-21T18:33:06.945Z,98348.56
2022-11-21T18:38:08.279Z,98347.44
2022-11-21T18:43:09.670Z,98360.50
2022-11-21T18:48:12.753Z,98361.13
2022-11-21T18:53:14.127Z,98375.78
2022-11-21T18:58:15.582Z,98373.28
2022-11-21T19:03:19.466Z,98366.88
2022-11-21T19:08:20.985Z,98363.53
2022-11-21T19:13:22.409Z,98344.63
2022-11-21T19:18:23.727Z,98348.19
2022-11-21T19:23:25.269Z,98339.13
2022-11-21T19:28:28.418Z,98339.34
2022-11-21T19:33:31.679Z,98330.78
2022-11-21T19:38:33.886Z,98323.28
2022-11-21T19:43:35.269Z,98304.91
2022-11-21T19:48:36.632Z,98303.47
2022-11-21T19:53:38.821Z,98287.59
2022-11-21T19:58:41.516Z,98296.81
2022-11-21T20:03:45.276Z,98288.22
2022-11-21T20:08:58.164Z,98283.22
2022-11-21T20:13:59.920Z,98274.28
2022-11-21T20:19:06.674Z,98271.03
2022-11-21T20:24:08.842Z,98256.16
2022-11-21T20:29:13.102Z,98244.41
2022-11-21T20:34:14.658Z,98245.91
2022-11-21T20:39:17.935Z,98241.59
2022-11-21T20:49:42.649Z,98226.09
2022-11-21T20:54:44.121Z,98232.31
2022-11-21T20:59:45.496Z,98214.22
2022-11-21T21:04:46.956Z,98216.25
2022-11-21T21:09:48.257Z,98217.75
2022-11-21T21:14:49.528Z,98206.34
2022-11-21T21:19:50.882Z,98196.38
2022-11-21T21:24:52.167Z,98209.97
2022-11-21T21:29:53.531Z,98220.66
2022-11-21T21:34:54.837Z,98208.69
2022-11-21T21:39:56.219Z,98203.19
2022-11-21T21:44:57.565Z,98196.84
2022-11-21T21:49:58.865Z,98182.66
2022-11-21T21:55:00.191Z,98177.03
2022-11-21T22:00:01.521Z,98166.31
2022-11-21T22:05:03.110Z,98173.69
2022-11-21T22:10:06.152Z,98157.94
2022-11-21T22:15:08.008Z,98152.25
2022-11-21T22:20:09.677Z,98168.06
2022-11-21T22:25:10.969Z,98161.41
2022-11-21T22:30:14.290Z,98174.63
2022-11-21T22:35:15.679Z,98179.56
2022-11-21T22:40:18.418Z,98169.59
2022-11-21T22:45:19.761Z,98171.47
2022-11-21T22:50:21.108Z,98169.63
2022-11-21T22:55:22.555Z,98178.19
2022-11-21T23:00:23.997Z,98166.25
2022-11-21T23:05:25.377Z,98165.56
2022-11-21T23:10:26.661Z,98161.94
2022-11-21T23:15:27.955Z,98149.69
2022-11-21T23:20:29.259Z,98137.13
2022-11-21T23:25:30.631Z,98131.53
2022-11-21T23:30:32.007Z,98133.53
2022-11-21T23:35:33.359Z,98127.25
2022-11-21T23:40:34.745Z,98130.19
2022-11-21T23:45:36.151Z,98124.53
2022-11-21T23:50:37.489Z,98124.88
2022-11-21T23:55:38.839Z,98107.69
